createdAt,value
2018-02-27T00:28:13.043Z,79.30
2018-02-27T00:30:40.515Z,79.30
2018-02-27T00:33:07.986Z,79.40
2018-02-27T00:35:35.434Z,79.40
2018-02-27T00:44:36.418Z,79.40
2018-02-27T00:47:12.419Z,79.20
2018-02-27T01:41:03.576Z,73.60
2018-02-27T01:43:31.462Z,72.70
2018-02-27T01:45:59.035Z,72.70
2018-02-27T01:48:33.927Z,72.60
2018-02-27T01:51:19.404Z,72.40
2018-02-27T01:53:48.054Z,71.90
2018-02-27T01:56:17.158Z,71.80
2018-02-27T01:58:47.065Z,71.90
2018-02-27T02:01:28.790Z,71.90
2018-02-27T02:03:57.444Z,72.50
2018-02-27T02:06:34.360Z,72.80
2018-02-27T02:09:02.432Z,72.90
2018-02-27T02:11:29.915Z,73.20
2018-02-27T02:13:59.582Z,73.00
2018-02-27T02:16:30.032Z,73.00
2018-02-27T02:19:08.758Z,73.10
2018-02-27T02:21:43.902Z,72.60
2018-02-27T02:24:11.776Z,72.20
2018-02-27T02:26:39.302Z,72.20
2018-02-27T02:29:06.841Z,72.10
2018-02-27T02:31:36.153Z,71.90
2018-02-27T02:36:59.926Z,71.70
2018-02-27T02:39:49.054Z,71.80
2018-02-27T02:45:25.722Z,70.00
2018-02-27T02:47:59.228Z,69.50
2018-02-27T02:50:29.503Z,68.40
2018-02-27T02:52:56.982Z,68.40
2018-02-27T02:55:24.754Z,67.90
2018-02-27T02:57:52.229Z,67.40
2018-02-27T03:00:22.427Z,67.50
2018-02-27T03:02:53.160Z,67.60
2018-02-27T03:05:20.660Z,67.70
2018-02-27T03:07:49.714Z,68.90
2018-02-27T03:16:26.437Z,70.50
2018-02-27T03:19:06.654Z,70.60
2018-02-27T03:21:34.969Z,70.60
2018-02-27T03:24:19.302Z,71.20
2018-02-27T03:26:51.555Z,71.50
2018-02-27T03:32:47.751Z,72.50
2018-02-27T04:35:28.433Z,73.20
2018-02-27T04:38:08.713Z,73.30
2018-02-27T04:40:36.154Z,73.20
2018-02-27T04:43:11.400Z,73.10
2018-02-27T04:45:39.694Z,72.90
2018-02-27T04:48:07.646Z,72.90
2018-02-27T04:50:39.815Z,72.90
2018-02-27T04:56:28.613Z,72.80
2018-02-27T05:19:24.713Z,72.70
2018-02-27T05:22:08.459Z,72.50
2018-02-27T07:14:09.061Z,72.60
2018-02-27T07:19:14.764Z,72.20
2018-02-27T07:21:42.198Z,71.50
2018-02-27T07:24:09.624Z,71.60
2018-02-27T07:26:37.062Z,71.30
2018-02-27T07:29:04.489Z,71.40
2018-02-27T07:31:31.916Z,71.40
2018-02-27T07:33:59.344Z,71.30
2018-02-27T07:36:26.793Z,70.80
2018-02-27T07:38:54.217Z,70.90
2018-02-27T07:41:21.645Z,70.80
2018-02-27T07:43:49.068Z,70.60
2018-02-27T07:46:16.511Z,70.80
2018-02-27T07:48:43.944Z,70.60
2018-02-27T07:51:11.375Z,70.70
2018-02-27T07:53:38.800Z,70.30
2018-02-27T07:56:06.238Z,69.90
2018-02-27T07:58:33.681Z,69.80
2018-02-27T08:01:01.132Z,69.70
2018-02-27T08:03:28.580Z,69.40
2018-02-27T08:05:56.443Z,69.60
2018-02-27T08:08:24.268Z,69.20
2018-02-27T08:10:51.704Z,69.20
2018-02-27T08:13:19.164Z,69.20
2018-02-27T08:15:46.613Z,68.90
2018-02-27T08:18:14.042Z,69.00
2018-02-27T08:20:41.481Z,68.70
2018-02-27T08:23:08.928Z,68.70
2018-02-27T08:25:36.767Z,68.40
2018-02-27T08:28:04.200Z,68.40
2018-02-27T08:30:31.714Z,68.40
2018-02-27T08:32:59.174Z,67.90
2018-02-27T08:35:27.052Z,68.00
2018-02-27T08:37:54.509Z,68.00
2018-02-27T08:40:21.975Z,67.90
2018-02-27T08:42:49.414Z,67.90
2018-02-27T08:45:17.260Z,67.90
2018-02-27T08:47:44.700Z,68.00
2018-02-27T08:50:12.136Z,67.90
2018-02-27T08:52:39.568Z,67.20
2018-02-27T08:55:07.012Z,67.50
2018-02-27T08:57:34.441Z,67.50
2018-02-27T09:00:01.877Z,67.50
2018-02-27T09:02:29.305Z,67.30
2018-02-27T09:04:56.774Z,67.10
2018-02-27T09:07:24.200Z,67.00
2018-02-27T09:09:51.684Z,67.00
2018-02-27T09:12:19.142Z,67.10
2018-02-27T09:14:46.652Z,66.80
2018-02-27T09:17:14.042Z,66.40
2018-02-27T09:19:41.480Z,66.50
2018-02-27T09:22:08.913Z,66.30
2018-02-27T09:24:36.336Z,66.10
2018-02-27T09:27:03.775Z,65.90
2018-02-27T09:29:31.220Z,65.90
2018-02-27T09:32:07.294Z,65.80
2018-02-27T09:34:50.649Z,65.60
2018-02-27T09:37:18.126Z,65.80
2018-02-27T09:39:45.577Z,65.90
2018-02-27T09:42:13.096Z,65.90
2018-02-27T09:44:40.557Z,65.60
2018-02-27T09:47:08.021Z,65.40
2018-02-27T09:49:37.512Z,65.00
2018-02-27T09:52:04.949Z,65.30
2018-02-27T09:54:32.400Z,64.90
2018-02-27T09:56:59.853Z,64.60
2018-02-27T09:59:27.308Z,64.00
2018-02-27T10:01:55.461Z,63.80
2018-02-27T10:04:23.321Z,63.70
2018-02-27T10:06:50.748Z,63.70
2018-02-27T10:09:18.186Z,63.80
2018-02-27T10:11:45.620Z,63.80
2018-02-27T10:14:13.045Z,64.00
2018-02-27T10:16:40.532Z,64.10
2018-02-27T10:19:08.345Z,63.40
2018-02-27T10:21:35.785Z,63.40
2018-02-27T10:24:03.261Z,63.30
2018-02-27T10:26:30.800Z,63.30
2018-02-27T10:28:58.253Z,63.40
2018-02-27T10:31:25.797Z,63.00
2018-02-27T10:33:53.471Z,62.80
2018-02-27T10:36:22.569Z,62.70
2018-02-27T10:38:50.038Z,62.60
2018-02-27T10:41:18.121Z,62.50
2018-02-27T10:43:45.576Z,62.30
2018-02-27T10:46:13.049Z,62.20
2018-02-27T10:48:40.962Z,62.00
2018-02-27T10:51:08.478Z,61.80
2018-02-27T10:53:35.937Z,61.40
2018-02-27T10:56:03.402Z,61.30
2018-02-27T10:58:30.861Z,61.30
2018-02-27T11:00:58.336Z,61.10
2018-02-27T11:03:25.813Z,61.40
2018-02-27T11:05:53.274Z,61.30
2018-02-27T11:08:20.745Z,61.20
2018-02-27T11:10:48.210Z,61.00
2018-02-27T11:13:16.309Z,60.80
2018-02-27T11:15:43.758Z,60.80
2018-02-27T11:18:11.222Z,60.80
2018-02-27T11:20:38.678Z,60.90
2018-02-27T11:23:06.541Z,60.50
2018-02-27T11:25:34.021Z,60.50
2018-02-27T11:28:01.833Z,60.20
2018-02-27T11:30:30.438Z,60.20
2018-02-27T11:32:57.901Z,60.10
2018-02-27T11:35:25.328Z,59.90
2018-02-27T11:37:52.777Z,59.70
2018-02-27T11:40:20.213Z,59.50
2018-02-27T11:42:47.665Z,59.60
2018-02-27T11:45:15.097Z,59.90
2018-02-27T11:47:42.926Z,60.30
2018-02-27T11:50:10.397Z,60.40
2018-02-27T11:52:37.834Z,60.40
2018-02-27T11:55:05.301Z,60.10
2018-02-27T11:57:32.742Z,60.40
2018-02-27T12:00:00.162Z,60.60
2018-02-27T12:02:27.629Z,60.40
2018-02-27T12:04:55.083Z,59.80
2018-02-27T12:07:22.521Z,59.90
2018-02-27T12:09:49.945Z,59.90
2018-02-27T12:12:17.425Z,60.00
2018-02-27T12:14:45.341Z,59.90
2018-02-27T12:17:12.792Z,59.70
2018-02-27T12:19:40.281Z,59.50
2018-02-27T12:22:08.059Z,59.80
2018-02-27T12:24:35.524Z,59.80
2018-02-27T12:27:02.946Z,59.40
2018-02-27T12:29:30.384Z,59.20
2018-02-27T12:31:57.839Z,59.10
2018-02-27T12:34:25.264Z,58.60
2018-02-27T12:36:53.095Z,58.80
2018-02-27T12:39:20.523Z,58.80
2018-02-27T12:41:47.949Z,58.80
2018-02-27T12:44:15.398Z,59.00
2018-02-27T12:46:42.834Z,59.20
2018-02-27T12:49:10.263Z,58.80
2018-02-27T12:51:37.713Z,58.40
2018-02-27T12:54:05.137Z,58.40
2018-02-27T12:56:32.611Z,58.60
2018-02-27T12:59:00.048Z,58.60
2018-02-27T13:01:27.868Z,57.50
2018-02-27T13:03:55.320Z,57.50
2018-02-27T13:06:22.753Z,58.20
2018-02-27T13:08:50.177Z,57.70
2018-02-27T13:11:17.635Z,57.80
2018-02-27T13:13:45.044Z,57.60
2018-02-27T13:16:12.495Z,57.30
2018-02-27T13:18:39.918Z,57.30
2018-02-27T13:21:07.348Z,57.30
2018-02-27T13:23:35.177Z,57.00
2018-02-27T13:26:03.364Z,57.00
2018-02-27T13:28:30.792Z,57.00
2018-02-27T13:30:58.256Z,56.50
2018-02-27T13:33:25.684Z,56.30
2018-02-27T13:35:53.148Z,57.00
2018-02-27T13:38:20.609Z,56.60
2018-02-27T13:40:48.083Z,56.50
2018-02-27T13:43:15.538Z,56.50
2018-02-27T13:45:42.973Z,56.40
2018-02-27T13:48:10.404Z,56.10
2018-02-27T13:50:38.225Z,55.90
2018-02-27T13:53:05.656Z,55.90
2018-02-27T13:55:33.116Z,56.00
2018-02-27T13:58:00.584Z,56.00
2018-02-27T14:00:28.044Z,55.90
2018-02-27T14:02:55.509Z,56.00
2018-02-27T14:05:22.920Z,55.90
2018-02-27T14:07:50.360Z,56.10
2018-02-27T14:10:17.826Z,56.20
2018-02-27T14:12:45.277Z,56.10
2018-02-27T14:15:13.105Z,56.60
2018-02-27T14:17:40.557Z,56.70
2018-02-27T14:20:08.087Z,56.40
2018-02-27T14:22:35.542Z,56.40
2018-02-27T14:25:02.998Z,56.20
2018-02-27T14:27:30.427Z,55.80
2018-02-27T14:29:57.888Z,55.80
2018-02-27T14:32:25.296Z,55.50
2018-02-27T14:34:52.724Z,55.90
2018-02-27T14:37:20.181Z,56.10
2018-02-27T14:39:47.647Z,55.60
2018-02-27T14:42:15.433Z,56.00
2018-02-27T14:44:42.873Z,56.00
2018-02-27T14:47:10.321Z,55.70
2018-02-27T14:49:37.799Z,55.40
2018-02-27T14:52:05.666Z,54.90
2018-02-27T14:54:33.101Z,54.90
2018-02-27T14:57:00.544Z,55.60
2018-02-27T14:59:28.369Z,55.40
2018-02-27T15:01:55.804Z,55.40
2018-02-27T15:04:23.241Z,55.10
2018-02-27T15:06:50.676Z,55.20
2018-02-27T15:09:18.116Z,55.40
2018-02-27T15:11:45.558Z,55.20
2018-02-27T15:14:13.394Z,55.50
2018-02-27T15:16:40.832Z,55.50
2018-02-27T15:19:08.252Z,55.60
2018-02-27T15:21:35.693Z,55.70
2018-02-27T15:24:03.116Z,55.40
2018-02-27T15:26:30.538Z,55.60
2018-02-27T15:28:57.968Z,55.60
2018-02-27T15:31:25.787Z,56.10
2018-02-27T15:33:53.219Z,56.10
2018-02-27T15:36:20.632Z,55.90
2018-02-27T15:38:48.063Z,56.00
2018-02-27T15:41:15.724Z,56.00
2018-02-27T15:43:43.137Z,55.90
2018-02-27T15:46:10.556Z,56.10
2018-02-27T15:48:38.405Z,56.10
2018-02-27T15:51:05.887Z,56.10
2018-02-27T15:53:33.729Z,56.30
2018-02-27T15:56:01.185Z,56.30
2018-02-27T15:58:28.596Z,56.40
2018-02-27T16:00:56.026Z,56.20
2018-02-27T16:03:23.480Z,56.30
2018-02-27T16:05:51.311Z,56.70
2018-02-27T16:08:18.732Z,56.70
2018-02-27T16:10:46.155Z,56.30
2018-02-27T16:13:13.976Z,56.60
2018-02-27T16:15:41.414Z,56.60
2018-02-27T16:18:08.877Z,56.60
2018-02-27T16:20:36.339Z,56.60
2018-02-27T16:23:03.778Z,56.90
2018-02-27T16:25:31.221Z,56.90
2018-02-27T16:27:58.641Z,57.10
2018-02-27T16:30:26.089Z,57.30
2018-02-27T16:32:53.517Z,57.40
2018-02-27T16:35:20.956Z,57.60
2018-02-27T16:37:48.421Z,57.60
2018-02-27T16:40:15.844Z,57.70
2018-02-27T16:42:43.684Z,58.10
2018-02-27T16:45:11.122Z,58.10
2018-02-27T16:47:38.548Z,58.20
2018-02-27T16:50:06.000Z,58.20
2018-02-27T16:52:33.423Z,58.50
2018-02-27T16:57:44.459Z,58.80
2018-02-27T17:00:11.880Z,58.90
2018-02-27T17:02:39.707Z,59.30
2018-02-27T17:05:07.132Z,59.40
2018-02-27T17:07:34.573Z,59.40
2018-02-27T17:10:01.996Z,59.60
2018-02-27T17:12:29.423Z,59.80
2018-02-27T17:14:56.856Z,59.90
2018-02-27T17:17:24.288Z,60.00
2018-02-27T17:19:52.122Z,60.30
2018-02-27T17:22:19.551Z,60.30
2018-02-27T17:24:46.971Z,60.40
2018-02-27T17:27:14.420Z,60.50
2018-02-27T17:29:41.884Z,60.50
2018-02-27T17:32:09.317Z,60.80
2018-02-27T17:34:36.745Z,60.80
2018-02-27T17:37:04.177Z,60.80
2018-02-27T17:39:31.605Z,61.10
2018-02-27T17:41:59.444Z,61.40
2018-02-27T17:44:26.876Z,61.40
2018-02-27T17:46:54.305Z,61.30
2018-02-27T17:49:21.724Z,61.40
2018-02-27T17:51:49.156Z,61.40
2018-02-27T17:54:16.582Z,61.60
2018-02-27T17:56:44.027Z,61.60
2018-02-27T17:59:11.501Z,61.70
2018-02-27T18:01:38.916Z,62.00
2018-02-27T18:04:06.755Z,61.90
2018-02-27T18:06:34.185Z,61.90
2018-02-27T18:09:01.614Z,62.10
2018-02-27T18:11:29.066Z,62.40
2018-02-27T18:13:56.513Z,62.30
2018-02-27T18:16:23.947Z,62.00
2018-02-27T18:18:51.382Z,62.30
2018-02-27T18:21:18.839Z,62.50
2018-02-27T18:23:46.286Z,62.60
2018-02-27T18:26:15.437Z,62.40
2018-02-27T18:28:43.786Z,62.60
2018-02-27T18:31:11.257Z,62.60
2018-02-27T18:33:39.143Z,62.60
2018-02-27T18:36:07.788Z,62.90
2018-02-27T18:38:35.240Z,62.90
2018-02-27T18:41:02.691Z,62.70
2018-02-27T18:43:30.141Z,63.00
2018-02-27T18:45:57.611Z,63.10
2018-02-27T18:48:25.441Z,63.20
2018-02-27T18:50:52.873Z,63.20
2018-02-27T18:53:20.328Z,63.20
2018-02-27T18:55:48.168Z,63.30
2018-02-27T18:58:15.626Z,63.30
2018-02-27T19:00:43.074Z,63.40
2018-02-27T19:03:10.552Z,63.40
2018-02-27T19:05:39.754Z,63.30
2018-02-27T19:08:07.629Z,63.50
2018-02-27T19:10:35.447Z,63.50
2018-02-27T19:13:02.889Z,63.50
2018-02-27T19:15:30.330Z,63.50
2018-02-27T19:17:58.690Z,63.60
2018-02-27T19:20:26.135Z,63.60
2018-02-27T19:22:54.004Z,63.80
2018-02-27T19:25:21.453Z,63.80
2018-02-27T19:27:49.329Z,63.80
2018-02-27T19:30:17.172Z,63.90
2018-02-27T19:32:44.835Z,63.90
2018-02-27T19:35:14.629Z,64.00
2018-02-27T19:37:42.081Z,64.00
2018-02-27T19:40:09.578Z,63.90
2018-02-27T19:42:37.076Z,63.90
2018-02-27T19:45:04.819Z,64.00
2018-02-27T19:47:32.280Z,64.00
2018-02-27T19:49:59.754Z,64.10
2018-02-27T19:52:27.194Z,64.20
2018-02-27T19:54:54.789Z,64.10
2018-02-27T19:57:22.228Z,64.10
2018-02-27T19:59:49.787Z,64.30
2018-02-27T20:02:17.257Z,64.70
2018-02-27T20:04:44.998Z,64.60
2018-02-27T20:07:12.621Z,64.50
2018-02-27T20:09:40.077Z,64.70
2018-02-27T20:12:07.540Z,64.40
2018-02-27T20:14:35.006Z,64.50
2018-02-27T20:17:02.528Z,64.50
2018-02-27T20:19:29.975Z,64.70
2018-02-27T20:21:57.413Z,64.80
2018-02-27T20:24:27.546Z,64.90
2018-02-27T20:26:55.061Z,64.90
2018-02-27T20:29:22.509Z,65.00
2018-02-27T20:31:51.302Z,65.40
2018-02-27T20:34:18.849Z,65.40
2018-02-27T20:36:46.678Z,65.40
2018-02-27T20:39:19.743Z,65.40
2018-02-27T20:41:47.991Z,65.50
2018-02-27T20:44:15.454Z,65.60
2018-02-27T20:46:42.896Z,65.60
2018-02-27T20:49:10.757Z,65.80
2018-02-27T20:51:38.608Z,65.80
2018-02-27T20:54:07.039Z,65.80
2018-02-27T20:56:34.489Z,65.90
2018-02-27T20:59:01.953Z,65.90
2018-02-27T21:01:30.304Z,65.90
2018-02-27T21:03:58.141Z,66.00
2018-02-27T21:06:25.590Z,66.00
2018-02-27T21:08:53.029Z,66.20
2018-02-27T21:11:21.207Z,66.10
2018-02-27T21:13:48.709Z,66.20
2018-02-27T21:16:17.056Z,66.30
2018-02-27T21:18:44.516Z,66.30
2018-02-27T21:21:11.965Z,66.40
2018-02-27T21:23:39.435Z,66.50
2018-02-27T21:26:07.523Z,66.60
2018-02-27T21:28:35.432Z,66.60
2018-02-27T21:31:03.468Z,66.60
2018-02-27T21:33:31.310Z,66.80
2018-02-27T21:35:58.766Z,66.70
2018-02-27T21:38:26.230Z,66.80
2018-02-27T21:40:53.684Z,66.70
2018-02-27T21:43:21.952Z,66.70
2018-02-27T21:45:49.385Z,66.90
2018-02-27T21:48:16.847Z,66.90
2018-02-27T21:50:44.277Z,66.90
2018-02-27T21:53:11.732Z,66.80
2018-02-27T21:55:39.173Z,66.90
2018-02-27T21:58:06.600Z,66.90
2018-02-27T22:00:34.878Z,67.10
2018-02-27T22:03:02.333Z,67.10
2018-02-27T22:05:29.768Z,67.10
2018-02-27T22:07:57.265Z,67.10
2018-02-27T22:10:24.712Z,67.30
2018-02-27T22:12:53.284Z,67.60
2018-02-27T22:15:20.742Z,67.60
2018-02-27T22:17:48.197Z,67.60
2018-02-27T22:20:15.648Z,67.60
2018-02-27T22:22:43.110Z,67.70
2018-02-27T22:25:10.558Z,67.80
2018-02-27T22:27:38.066Z,67.80
2018-02-27T22:30:05.476Z,67.90
2018-02-27T22:32:32.924Z,68.00
2018-02-27T22:35:00.386Z,67.90
2018-02-27T22:37:27.832Z,68.00
2018-02-27T22:39:55.704Z,68.00
2018-02-27T22:42:23.127Z,68.10
2018-02-27T22:44:50.682Z,68.10
2018-02-27T22:47:18.627Z,68.10
2018-02-27T22:49:46.161Z,68.00
2018-02-27T22:52:13.589Z,68.20
2018-02-27T22:54:41.038Z,68.30
2018-02-27T22:57:08.488Z,68.40
2018-02-27T22:59:35.958Z,68.50
2018-02-27T23:02:04.421Z,68.50
2018-02-27T23:04:31.870Z,68.50
2018-02-27T23:06:59.887Z,68.60
2018-02-27T23:09:27.356Z,68.50
2018-02-27T23:11:54.772Z,68.70
2018-02-27T23:14:22.238Z,68.70
2018-02-27T23:16:49.685Z,68.70
2018-02-27T23:19:17.146Z,68.90
2018-02-27T23:21:44.615Z,68.90
2018-02-27T23:24:12.558Z,68.90
2018-02-27T23:26:40.999Z,69.00
2018-02-27T23:29:10.081Z,69.00
2018-02-27T23:31:39.137Z,69.00
2018-02-27T23:34:22.651Z,69.00
2018-02-27T23:36:50.076Z,69.00
2018-02-27T23:39:18.145Z,69.00
2018-02-27T23:41:46.102Z,69.10
2018-02-27T23:44:13.548Z,69.10
2018-02-27T23:46:41.795Z,69.20
2018-02-27T23:49:10.840Z,69.20
2018-02-27T23:51:40.187Z,69.30
2018-02-27T23:54:07.654Z,69.30
2018-02-27T23:56:35.086Z,69.30
2018-02-27T23:59:02.629Z,69.50
